createdAt,value
2019-02-23T00:02:27.522Z,3.00
2019-02-23T00:04:57.740Z,3.00
2019-02-23T00:07:27.889Z,4.00
2019-02-23T00:09:58.090Z,1.80
2019-02-23T00:12:28.194Z,3.60
2019-02-23T00:14:58.313Z,1.40
2019-02-23T00:17:28.632Z,2.20
2019-02-23T00:19:58.961Z,1.00
2019-02-23T00:22:29.006Z,3.00
2019-02-23T00:24:59.266Z,3.00
2019-02-23T00:27:29.250Z,2.20
2019-02-23T00:29:59.218Z,1.00
2019-02-23T00:32:29.160Z,1.40
2019-02-23T00:34:59.152Z,1.80
2019-02-23T00:37:29.068Z,0.60
2019-02-23T00:39:59.450Z,3.00
2019-02-23T00:42:29.384Z,3.40
2019-02-23T00:44:59.247Z,1.00
2019-02-23T00:47:29.273Z,1.00
2019-02-23T00:49:59.150Z,0.80
2019-02-23T00:52:29.104Z,0.80
2019-02-23T00:54:59.030Z,1.00
2019-02-23T00:57:29.178Z,1.00
2019-02-23T00:59:59.298Z,0.00
2019-02-23T01:02:31.050Z,1.00
2019-02-23T01:05:02.295Z,3.00
2019-02-23T01:07:32.367Z,1.00
2019-02-23T01:10:02.385Z,1.00
2019-02-23T01:12:33.414Z,1.00
2019-02-23T01:15:05.670Z,1.00
2019-02-23T01:17:35.874Z,1.00
2019-02-23T01:20:08.295Z,1.00
2019-02-23T01:22:38.314Z,0.80
2019-02-23T01:25:08.429Z,1.00
2019-02-23T01:27:38.459Z,0.40
2019-02-23T01:30:10.167Z,1.00
2019-02-23T01:32:40.210Z,0.60
2019-02-23T01:35:10.298Z,1.00
2019-02-23T01:37:40.377Z,1.00
2019-02-23T01:40:11.032Z,1.00
2019-02-23T01:42:41.406Z,0.80
2019-02-23T01:45:11.495Z,0.00
2019-02-23T01:47:41.759Z,0.00
2019-02-23T01:50:11.835Z,0.20
2019-02-23T01:52:42.169Z,1.00
2019-02-23T01:55:12.114Z,0.20
2019-02-23T01:57:42.456Z,0.20
2019-02-23T02:00:14.354Z,0.40
2019-02-23T02:02:45.122Z,0.00
2019-02-23T02:05:15.249Z,1.00
2019-02-23T02:07:45.331Z,1.00
2019-02-23T02:10:15.584Z,0.20
2019-02-23T02:12:45.764Z,0.60
2019-02-23T02:15:16.404Z,1.00
2019-02-23T02:17:46.550Z,1.00
2019-02-23T02:20:16.731Z,1.00
2019-02-23T02:22:46.835Z,0.60
2019-02-23T02:25:17.007Z,1.00
2019-02-23T02:27:47.263Z,1.00
2019-02-23T02:30:17.443Z,1.00
2019-02-23T02:32:47.570Z,2.60
2019-02-23T02:35:17.586Z,1.00
2019-02-23T02:37:47.722Z,0.20
2019-02-23T02:40:18.146Z,1.40
2019-02-23T02:42:48.264Z,1.40
2019-02-23T02:45:19.466Z,3.00
2019-02-23T02:47:49.705Z,1.00
2019-02-23T02:50:24.220Z,1.00
2019-02-23T02:52:51.877Z,1.00
2019-02-23T02:55:22.030Z,3.00
2019-02-23T02:57:52.215Z,2.60
2019-02-23T03:00:22.440Z,1.80
2019-02-23T03:02:52.655Z,2.20
2019-02-23T03:05:22.874Z,2.60
2019-02-23T03:07:53.158Z,1.00
2019-02-23T03:10:23.311Z,1.00
2019-02-23T03:12:53.684Z,1.00
2019-02-23T03:15:23.853Z,1.00
2019-02-23T03:17:53.947Z,1.00
2019-02-23T03:20:35.924Z,0.40
2019-02-23T03:22:55.640Z,0.40
2019-02-23T03:25:25.870Z,0.00
2019-02-23T03:27:55.975Z,0.00
2019-02-23T03:30:26.121Z,0.40
2019-02-23T03:32:56.222Z,0.00
2019-02-23T03:35:26.334Z,0.00
2019-02-23T03:37:56.485Z,1.00
2019-02-23T03:40:26.631Z,1.00
2019-02-23T03:42:56.783Z,0.00
2019-02-23T03:45:26.874Z,1.00
2019-02-23T03:47:58.374Z,1.40
2019-02-23T03:50:28.466Z,0.00
2019-02-23T03:52:58.685Z,0.00
2019-02-23T03:55:28.560Z,1.00
2019-02-23T03:57:58.616Z,0.40
2019-02-23T04:00:28.730Z,1.00
2019-02-23T04:02:58.849Z,1.00
2019-02-23T04:05:28.964Z,0.20
2019-02-23T04:07:59.087Z,0.60
2019-02-23T04:10:29.425Z,0.60
2019-02-23T04:12:59.430Z,0.40
2019-02-23T04:15:29.637Z,0.00
2019-02-23T04:17:59.710Z,1.00
2019-02-23T04:20:30.160Z,0.00
2019-02-23T04:23:00.194Z,0.00
2019-02-23T04:25:30.311Z,0.00
2019-02-23T04:28:01.647Z,0.00
2019-02-23T04:30:31.773Z,0.00
2019-02-23T04:33:01.768Z,0.00
2019-02-23T04:35:32.315Z,0.40
2019-02-23T04:38:02.331Z,0.00
2019-02-23T04:40:32.636Z,0.00
2019-02-23T04:43:02.776Z,0.00
2019-02-23T04:45:32.890Z,0.25
2019-02-23T04:48:03.208Z,0.00
2019-02-23T04:50:33.530Z,0.00
2019-02-23T04:53:03.678Z,0.00
2019-02-23T04:55:33.868Z,0.00
2019-02-23T04:58:04.190Z,0.00
2019-02-23T05:00:34.178Z,0.00
2019-02-23T05:03:04.219Z,0.00
2019-02-23T05:05:34.491Z,0.00
2019-02-23T05:08:04.539Z,0.00
2019-02-23T05:10:34.674Z,0.00
2019-02-23T05:13:04.834Z,0.00
2019-02-23T05:15:35.011Z,0.00
2019-02-23T05:18:05.334Z,0.00
2019-02-23T05:20:35.505Z,0.00
2019-02-23T05:23:05.675Z,0.00
2019-02-23T05:25:36.300Z,0.80
2019-02-23T05:28:06.723Z,0.00
2019-02-23T05:30:36.959Z,0.00
2019-02-23T05:33:08.137Z,0.00
2019-02-23T05:35:38.180Z,0.00
2019-02-23T05:38:08.219Z,0.00
2019-02-23T05:40:38.334Z,0.00
2019-02-23T05:43:08.286Z,0.00
2019-02-23T05:45:38.590Z,0.80
2019-02-23T05:48:08.689Z,0.00
2019-02-23T05:50:39.521Z,0.00
2019-02-23T05:53:09.741Z,0.00
2019-02-23T05:55:39.960Z,0.00
2019-02-23T05:58:10.076Z,0.00
2019-02-23T06:00:40.295Z,0.00
2019-02-23T06:03:10.689Z,0.00
2019-02-23T06:05:40.839Z,0.00
2019-02-23T06:08:10.788Z,1.00
2019-02-23T06:10:40.911Z,0.00
2019-02-23T06:13:10.984Z,0.00
2019-02-23T06:15:41.077Z,0.00
2019-02-23T06:18:11.219Z,0.00
2019-02-23T06:20:41.259Z,0.20
2019-02-23T06:23:11.052Z,1.00
2019-02-23T06:25:41.119Z,0.00
2019-02-23T06:28:11.394Z,0.00
2019-02-23T06:30:41.376Z,1.00
2019-02-23T06:33:11.233Z,1.00
2019-02-23T06:35:41.221Z,1.00
2019-02-23T06:38:11.232Z,1.00
2019-02-23T06:40:41.391Z,1.80
2019-02-23T06:43:11.386Z,0.00
2019-02-23T06:45:41.579Z,1.60
2019-02-23T06:48:11.456Z,0.00
2019-02-23T06:50:41.393Z,0.60
2019-02-23T06:53:11.489Z,0.00
2019-02-23T06:55:41.536Z,0.00
2019-02-23T06:58:12.815Z,0.00
2019-02-23T07:00:42.896Z,1.00
2019-02-23T07:03:13.798Z,0.00
2019-02-23T07:05:43.863Z,1.00
2019-02-23T07:08:13.929Z,0.00
2019-02-23T07:10:43.982Z,0.60
2019-02-23T07:13:14.213Z,0.40
2019-02-23T07:15:44.266Z,0.40
2019-02-23T07:18:14.442Z,0.20
2019-02-23T07:20:44.764Z,0.40
2019-02-23T07:23:14.820Z,0.80
2019-02-23T07:25:45.639Z,1.00
2019-02-23T07:28:15.982Z,1.00
2019-02-23T07:30:46.058Z,0.00
2019-02-23T07:33:18.652Z,1.00
2019-02-23T07:35:47.826Z,1.00
2019-02-23T07:38:18.154Z,0.00
2019-02-23T07:40:48.269Z,0.00
2019-02-23T07:43:18.285Z,0.00
2019-02-23T07:45:48.498Z,0.40
2019-02-23T07:48:18.541Z,0.00
2019-02-23T07:50:48.631Z,0.60
2019-02-23T07:53:18.599Z,0.00
2019-02-23T07:55:48.612Z,0.00
2019-02-23T07:58:18.540Z,0.00
2019-02-23T08:00:48.523Z,0.80
2019-02-23T08:03:18.488Z,0.00
2019-02-23T08:05:48.520Z,0.60
2019-02-23T08:08:18.441Z,1.00
2019-02-23T08:10:48.495Z,0.00
2019-02-23T08:13:18.479Z,0.00
2019-02-23T08:15:48.434Z,0.00
2019-02-23T08:18:18.446Z,0.00
2019-02-23T08:20:48.483Z,0.00
2019-02-23T08:23:18.470Z,0.00
2019-02-23T08:25:48.525Z,0.00
2019-02-23T08:28:18.464Z,0.00
2019-02-23T08:30:48.498Z,0.80
2019-02-23T08:33:18.441Z,0.00
2019-02-23T08:35:48.723Z,0.00
2019-02-23T08:38:18.693Z,0.80
2019-02-23T08:40:48.604Z,0.80
2019-02-23T08:43:20.716Z,0.20
2019-02-23T08:45:50.135Z,0.60
2019-02-23T08:48:20.078Z,1.00
2019-02-23T08:50:49.971Z,1.00
2019-02-23T08:53:20.132Z,0.40
2019-02-23T08:55:50.088Z,0.00
2019-02-23T08:58:21.199Z,0.00
2019-02-23T09:00:51.201Z,1.00
2019-02-23T09:03:21.227Z,0.00
2019-02-23T09:05:52.322Z,2.20
2019-02-23T09:08:22.729Z,3.00
2019-02-23T09:10:52.899Z,1.40
2019-02-23T09:13:23.225Z,0.00
2019-02-23T09:15:54.335Z,0.20
2019-02-23T09:18:24.313Z,0.40
2019-02-23T09:20:54.254Z,0.00
2019-02-23T09:23:24.261Z,1.00
2019-02-23T09:25:54.423Z,0.00
2019-02-23T09:28:24.740Z,0.40
2019-02-23T09:30:54.860Z,1.00
2019-02-23T09:33:24.978Z,0.00
2019-02-23T09:35:55.100Z,1.00
2019-02-23T09:38:25.312Z,1.00
2019-02-23T09:40:55.563Z,1.00
2019-02-23T09:43:26.058Z,0.80
2019-02-23T09:45:56.373Z,0.00
2019-02-23T09:48:26.322Z,0.40
2019-02-23T09:50:56.512Z,0.80
2019-02-23T09:53:26.529Z,0.80
2019-02-23T09:55:56.450Z,1.00
2019-02-23T09:58:26.560Z,0.00
2019-02-23T10:00:56.644Z,0.60
2019-02-23T10:03:26.673Z,0.60
2019-02-23T10:05:57.019Z,1.00
2019-02-23T10:08:27.116Z,1.00
2019-02-23T10:10:57.722Z,0.80
2019-02-23T10:13:27.961Z,1.00
2019-02-23T10:15:57.940Z,1.00
2019-02-23T10:18:27.928Z,3.00
2019-02-23T10:20:57.935Z,1.00
2019-02-23T10:23:27.855Z,1.00
2019-02-23T10:25:58.023Z,2.20
2019-02-23T10:28:27.960Z,0.80
2019-02-23T10:30:58.003Z,1.00
2019-02-23T10:33:28.096Z,1.00
2019-02-23T10:35:58.172Z,1.00
2019-02-23T10:38:28.130Z,0.20
2019-02-23T10:40:59.846Z,1.40
2019-02-23T10:43:29.941Z,1.00
2019-02-23T10:46:00.092Z,1.40
2019-02-23T10:48:30.015Z,1.00
2019-02-23T10:51:00.078Z,1.00
2019-02-23T10:53:33.082Z,0.00
2019-02-23T10:56:02.827Z,0.60
2019-02-23T10:58:34.153Z,1.00
2019-02-23T11:01:06.827Z,0.80
2019-02-23T11:03:35.906Z,1.00
2019-02-23T11:06:06.157Z,1.00
2019-02-23T11:08:36.137Z,1.00
2019-02-23T11:11:06.558Z,1.00
2019-02-23T11:13:36.583Z,3.00
2019-02-23T11:16:06.647Z,1.40
2019-02-23T11:18:36.666Z,2.60
2019-02-23T11:21:06.816Z,1.00
2019-02-23T11:23:43.924Z,1.00
2019-02-23T11:26:08.360Z,2.20
2019-02-23T11:28:38.400Z,1.00
2019-02-23T11:31:08.425Z,2.60
2019-02-23T11:33:38.415Z,1.00
2019-02-23T11:36:08.464Z,1.00
2019-02-23T11:38:38.493Z,3.00
2019-02-23T11:41:09.646Z,1.00
2019-02-23T11:43:39.852Z,2.60
2019-02-23T11:46:10.035Z,1.00
2019-02-23T11:48:40.028Z,0.80
2019-02-23T11:51:10.090Z,0.60
2019-02-23T11:53:40.005Z,0.60
2019-02-23T11:56:10.007Z,0.00
2019-02-23T11:58:40.485Z,1.00
2019-02-23T12:01:10.616Z,1.80
2019-02-23T12:03:40.631Z,1.00
2019-02-23T12:06:10.675Z,1.00
2019-02-23T12:08:40.595Z,1.00
2019-02-23T12:11:10.733Z,1.00
2019-02-23T12:13:40.728Z,0.00
2019-02-23T12:16:10.749Z,1.00
2019-02-23T12:18:40.659Z,1.00
2019-02-23T12:21:10.682Z,0.00
2019-02-23T12:23:40.508Z,3.00
2019-02-23T12:26:10.568Z,2.60
2019-02-23T12:28:40.552Z,1.40
2019-02-23T12:31:10.439Z,2.60
2019-02-23T12:33:40.446Z,1.00
2019-02-23T12:36:10.466Z,1.00
2019-02-23T12:38:40.445Z,0.60
2019-02-23T12:41:10.474Z,1.00
2019-02-23T12:43:40.484Z,1.00
2019-02-23T12:46:10.761Z,0.60
2019-02-23T12:48:40.860Z,1.00
2019-02-23T12:51:10.931Z,3.00
2019-02-23T12:53:40.827Z,0.00
2019-02-23T12:56:10.912Z,1.00
2019-02-23T12:58:40.957Z,1.00
2019-02-23T13:01:11.017Z,1.00
2019-02-23T13:03:41.426Z,1.00
2019-02-23T13:06:11.530Z,1.80
2019-02-23T13:09:07.147Z,0.60
2019-02-23T13:11:37.807Z,0.80
2019-02-23T13:14:19.686Z,0.00
2019-02-23T13:16:52.938Z,2.20
2019-02-23T13:19:28.870Z,1.00
2019-02-23T13:22:04.581Z,1.00
2019-02-23T13:25:10.875Z,0.00
2019-02-23T13:28:00.734Z,1.00
2019-02-23T13:30:50.441Z,1.00
2019-02-23T13:33:32.107Z,0.00
2019-02-23T13:36:10.857Z,1.00
2019-02-23T13:39:00.440Z,0.00
2019-02-23T13:41:57.266Z,1.00
2019-02-23T13:44:52.511Z,0.80
2019-02-23T13:47:42.988Z,1.00
2019-02-23T13:50:38.331Z,1.00
2019-02-23T13:53:33.177Z,0.00
2019-02-23T13:56:22.716Z,0.00
2019-02-23T13:59:12.979Z,0.60
2019-02-23T14:01:51.592Z,0.40
2019-02-23T14:04:40.827Z,0.80
2019-02-23T14:07:22.919Z,1.80
2019-02-23T14:10:21.800Z,1.80
2019-02-23T14:13:14.467Z,1.40
2019-02-23T14:16:03.716Z,1.00
2019-02-23T14:18:59.159Z,3.00
2019-02-23T14:21:48.519Z,1.00
2019-02-23T14:24:21.460Z,1.00
2019-02-23T14:27:00.187Z,1.00
2019-02-23T14:29:38.544Z,1.40
2019-02-23T14:32:14.178Z,1.80
2019-02-23T14:34:56.292Z,1.00
2019-02-23T14:37:29.189Z,0.60
2019-02-23T14:40:24.328Z,1.00
2019-02-23T14:43:14.185Z,3.00
2019-02-23T14:46:20.975Z,3.00
2019-02-23T14:49:02.636Z,2.20
2019-02-23T14:51:35.587Z,2.20
2019-02-23T14:54:17.638Z,3.00
2019-02-23T14:56:50.577Z,1.40
2019-02-23T14:59:35.426Z,3.00
2019-02-23T15:02:24.684Z,3.00
2019-02-23T15:05:23.269Z,2.20
2019-02-23T15:08:12.843Z,3.00
2019-02-23T15:10:54.533Z,2.20
2019-02-23T15:13:50.146Z,3.00
2019-02-23T15:16:48.844Z,3.00
2019-02-23T15:19:41.581Z,4.00
2019-02-23T15:22:40.578Z,1.00
2019-02-23T15:25:33.435Z,2.60
2019-02-23T15:28:37.020Z,3.00
2019-02-23T15:31:03.096Z,3.00
2019-02-23T15:33:52.623Z,3.00
2019-02-23T15:36:45.238Z,6.00
2019-02-23T15:39:51.636Z,1.00
2019-02-23T15:42:24.824Z,3.00
2019-02-23T15:45:31.530Z,3.80
2019-02-23T15:48:21.237Z,14.60
2019-02-23T15:50:51.390Z,6.40
2019-02-23T15:53:21.402Z,3.20
2019-02-23T15:55:51.582Z,3.00
2019-02-23T15:58:21.609Z,4.00
2019-02-23T16:00:51.658Z,3.00
2019-02-23T16:03:21.710Z,3.20
2019-02-23T16:05:52.810Z,3.00
2019-02-23T16:08:23.036Z,3.40
2019-02-23T16:10:54.285Z,6.00
2019-02-23T16:13:24.403Z,4.00
2019-02-23T16:15:54.525Z,3.40
2019-02-23T16:18:24.876Z,4.80
2019-02-23T16:20:54.964Z,4.00
2019-02-23T16:23:34.904Z,6.00
2019-02-23T16:25:56.642Z,5.20
2019-02-23T16:28:26.767Z,4.40
2019-02-23T16:30:56.686Z,6.20
2019-02-23T16:33:26.718Z,6.00
2019-02-23T16:35:56.644Z,5.20
2019-02-23T16:38:26.795Z,3.60
2019-02-23T16:40:56.933Z,3.60
2019-02-23T16:43:27.157Z,3.40
2019-02-23T16:45:57.251Z,3.80
2019-02-23T16:48:27.381Z,3.80
2019-02-23T16:50:57.596Z,4.00
2019-02-23T16:53:27.784Z,3.00
2019-02-23T16:55:57.825Z,3.00
2019-02-23T16:58:27.939Z,4.40
2019-02-23T17:00:58.057Z,3.00
2019-02-23T17:03:29.095Z,3.60
2019-02-23T17:06:00.136Z,3.40
2019-02-23T17:08:30.363Z,2.60
2019-02-23T17:11:00.576Z,3.00
2019-02-23T17:13:30.800Z,0.80
2019-02-23T17:16:00.914Z,3.00
2019-02-23T17:18:30.837Z,3.00
2019-02-23T17:21:00.940Z,3.40
2019-02-23T17:23:30.983Z,1.80
2019-02-23T17:26:04.896Z,3.00
2019-02-23T17:28:32.738Z,5.60
2019-02-23T17:31:02.690Z,3.60
2019-02-23T17:33:32.856Z,3.00
2019-02-23T17:36:02.984Z,3.20
2019-02-23T17:38:33.194Z,3.60
2019-02-23T17:41:03.365Z,3.20
2019-02-23T17:43:33.377Z,3.80
2019-02-23T17:46:03.369Z,3.00
2019-02-23T17:51:03.316Z,3.00
2019-02-23T17:53:33.392Z,3.00
2019-02-23T17:56:03.520Z,3.00
2019-02-23T17:58:34.739Z,3.60
2019-02-23T18:01:04.866Z,3.80
2019-02-23T18:03:34.845Z,3.40
2019-02-23T18:06:04.856Z,1.40
2019-02-23T18:08:34.883Z,3.00
2019-02-23T18:11:04.862Z,5.60
2019-02-23T18:13:34.881Z,3.00
2019-02-23T18:16:05.046Z,4.80
2019-02-23T18:18:35.054Z,4.00
2019-02-23T18:21:05.038Z,4.00
2019-02-23T18:23:35.092Z,3.60
2019-02-23T18:26:05.070Z,3.20
2019-02-23T18:28:36.217Z,3.80
2019-02-23T18:31:06.204Z,4.40
2019-02-23T18:33:36.228Z,3.80
2019-02-23T18:36:06.302Z,4.40
2019-02-23T18:38:36.353Z,4.20
2019-02-23T18:41:06.320Z,3.60
2019-02-23T18:43:38.087Z,3.20
2019-02-23T18:46:08.102Z,3.80
2019-02-23T18:48:38.131Z,4.00
2019-02-23T18:51:08.112Z,0.60
2019-02-23T18:53:39.207Z,4.40
2019-02-23T18:56:09.191Z,6.20
2019-02-23T18:58:41.218Z,6.00
2019-02-23T19:01:11.258Z,6.00
2019-02-23T19:03:42.477Z,4.80
2019-02-23T19:06:12.541Z,4.80
2019-02-23T19:08:42.656Z,5.60
2019-02-23T19:11:13.206Z,3.80
2019-02-23T19:13:43.223Z,3.00
2019-02-23T19:16:13.497Z,3.00
2019-02-23T19:18:44.765Z,4.40
2019-02-23T19:21:14.976Z,4.00
2019-02-23T19:23:45.003Z,4.00
2019-02-23T19:26:15.040Z,3.00
2019-02-23T19:28:45.082Z,4.80
2019-02-23T19:31:15.081Z,4.00
2019-02-23T19:33:45.045Z,6.00
2019-02-23T19:36:15.042Z,6.40
2019-02-23T19:38:44.959Z,6.40
2019-02-23T19:41:15.397Z,6.00
2019-02-23T19:43:46.456Z,6.00
2019-02-23T19:46:16.452Z,6.00
2019-02-23T19:48:46.570Z,6.40
2019-02-23T19:51:18.016Z,5.20
2019-02-23T19:53:48.335Z,6.80
2019-02-23T19:56:18.406Z,3.60
2019-02-23T19:58:48.469Z,3.80
2019-02-23T20:01:18.585Z,3.00
2019-02-23T20:03:48.703Z,3.00
2019-02-23T20:06:18.860Z,2.60
2019-02-23T20:08:48.944Z,3.00
2019-02-23T20:11:19.295Z,3.00
2019-02-23T20:13:49.288Z,3.00
2019-02-23T20:16:19.337Z,3.40
2019-02-23T20:18:49.407Z,3.00
2019-02-23T20:21:19.551Z,3.40
2019-02-23T20:23:49.556Z,1.40
2019-02-23T20:26:19.480Z,3.00
2019-02-23T20:28:49.679Z,3.00
2019-02-23T20:31:19.995Z,3.40
2019-02-23T20:33:50.020Z,1.40
2019-02-23T20:36:20.044Z,3.20
2019-02-23T20:38:49.966Z,1.80
2019-02-23T20:41:20.000Z,3.00
2019-02-23T20:43:50.063Z,3.00
2019-02-23T20:46:20.033Z,3.80
2019-02-23T20:48:50.033Z,3.00
2019-02-23T20:51:20.514Z,1.00
2019-02-23T20:53:50.505Z,3.20
2019-02-23T20:56:20.573Z,1.00
2019-02-23T20:58:50.550Z,1.00
2019-02-23T21:01:20.575Z,3.40
2019-02-23T21:03:50.579Z,3.00
2019-02-23T21:06:22.139Z,3.00
2019-02-23T21:08:53.205Z,2.60
2019-02-23T21:11:23.219Z,4.60
2019-02-23T21:13:53.217Z,3.00
2019-02-23T21:16:23.435Z,4.00
2019-02-23T21:18:53.462Z,3.00
2019-02-23T21:21:23.577Z,3.60
2019-02-23T21:23:53.731Z,3.20
2019-02-23T21:26:23.879Z,6.00
2019-02-23T21:28:53.932Z,3.00
2019-02-23T21:31:24.043Z,3.00
2019-02-23T21:33:54.157Z,3.80
2019-02-23T21:36:24.379Z,4.40
2019-02-23T21:38:54.324Z,4.00
2019-02-23T21:41:24.619Z,3.60
2019-02-23T21:43:54.832Z,4.80
2019-02-23T21:46:25.152Z,3.00
2019-02-23T21:48:55.269Z,1.00
2019-02-23T21:51:25.441Z,3.00
2019-02-23T21:53:55.505Z,3.00
2019-02-23T21:56:26.912Z,3.20
2019-02-23T21:58:56.880Z,3.00
2019-02-23T22:01:27.085Z,3.20
2019-02-23T22:03:57.240Z,2.20
2019-02-23T22:06:27.267Z,3.00
2019-02-23T22:08:58.467Z,1.80
2019-02-23T22:11:28.554Z,4.00
2019-02-23T22:13:58.597Z,3.40
2019-02-23T22:16:28.752Z,3.00
2019-02-23T22:18:58.834Z,3.40
2019-02-23T22:21:28.874Z,3.60
2019-02-23T22:23:59.020Z,3.60
2019-02-23T22:26:29.489Z,2.20
2019-02-23T22:28:59.603Z,4.00
2019-02-23T22:31:29.828Z,3.00
2019-02-23T22:33:59.940Z,3.60
2019-02-23T22:36:30.273Z,3.20
2019-02-23T22:39:00.379Z,3.20
2019-02-23T22:41:32.446Z,3.00
2019-02-23T22:44:02.661Z,3.20
2019-02-23T22:46:32.787Z,4.00
2019-02-23T22:49:02.888Z,2.20
2019-02-23T22:51:33.011Z,2.60
2019-02-23T22:54:03.249Z,3.20
2019-02-23T22:56:33.385Z,2.60
2019-02-23T22:59:03.370Z,3.60
2019-02-23T23:01:33.822Z,4.40
2019-02-23T23:04:04.018Z,3.20
2019-02-23T23:06:35.291Z,5.60
2019-02-23T23:09:07.724Z,4.40
2019-02-23T23:11:38.051Z,3.20
2019-02-23T23:14:08.295Z,4.00
2019-02-23T23:16:38.396Z,4.20
2019-02-23T23:19:08.449Z,6.00
2019-02-23T23:21:39.642Z,4.00
2019-02-23T23:24:10.790Z,5.60
2019-02-23T23:26:40.921Z,4.00
2019-02-23T23:29:11.019Z,3.80
2019-02-23T23:31:41.166Z,2.60
2019-02-23T23:34:11.182Z,6.00
2019-02-23T23:36:41.239Z,7.00
2019-02-23T23:39:11.384Z,4.40
2019-02-23T23:41:41.604Z,6.00
2019-02-23T23:44:11.728Z,4.00
2019-02-23T23:46:41.791Z,6.80
2019-02-23T23:49:11.899Z,6.00
2019-02-23T23:51:42.177Z,6.00
2019-02-23T23:54:12.297Z,7.40
2019-02-23T23:56:42.582Z,9.00
2019-02-23T23:59:12.524Z,6.40
